Time;durP1;ratioP1;P1;durP2;ratioP2;P2;SDS_P1;SDS_P2;PMS_P1;PMS_P2;Temp;Humidity;BMP_temperature;BMP_pressure;BME280_temperature;BME280_humidity;BME280_pressure;Samples;Min_cycle;Max_cycle;Signal;HPM_P1;HPM_P2
2022/07/12 00:01:42;;;;;;;4.10;3.95;;;;;;;14.01;87.61;101731.91;4962189;28;21090;-66
2022/07/12 00:04:08;;;;;;;4.78;4.38;;;;;;;14.06;87.42;101743.00;4984512;28;20006;-67
2022/07/12 00:06:33;;;;;;;3.90;3.70;;;;;;;13.94;87.35;101736.06;4958414;28;20458;-66
2022/07/12 00:08:58;;;;;;;4.20;4.00;;;;;;;13.88;88.00;101741.94;4964432;28;20022;-66
2022/07/12 00:11:24;;;;;;;4.38;4.18;;;;;;;13.93;87.65;101741.53;4963021;28;20015;-66
2022/07/12 00:13:49;;;;;;;4.43;4.13;;;;;;;13.85;87.65;101736.91;4963196;28;20101;-67
2022/07/12 00:16:15;;;;;;;4.10;4.00;;;;;;;13.78;87.87;101735.75;4968771;28;20315;-67
2022/07/12 00:18:41;;;;;;;4.72;4.50;;;;;;;13.80;87.87;101733.78;4983550;28;20164;-65
2022/07/12 00:21:07;;;;;;;4.38;4.20;;;;;;;13.70;87.76;101744.38;4982987;28;21012;-66
2022/07/12 00:23:33;;;;;;;4.60;4.20;;;;;;;13.67;88.42;101734.84;4966515;28;20018;-65
2022/07/12 00:26:02;;;;;;;4.68;4.38;;;;;;;13.68;88.26;101731.22;4982186;28;20543;-66
2022/07/12 00:28:27;;;;;;;4.40;4.20;;;;;;;13.71;88.13;101727.47;4960843;28;20754;-66
2022/07/12 00:30:53;;;;;;;4.63;4.32;;;;;;;13.64;87.84;101719.16;4987667;28;20012;-65
2022/07/12 00:33:18;;;;;;;4.85;4.65;;;;;;;13.57;88.08;101723.31;4986816;28;20513;-66
2022/07/12 00:35:44;;;;;;;4.70;4.50;;;;;;;13.60;87.76;101724.88;4987028;28;20022;-67
2022/07/12 00:38:09;;;;;;;4.65;4.45;;;;;;;13.66;88.15;101729.66;4966781;28;20040;-66
2022/07/12 00:40:35;;;;;;;4.30;4.00;;;;;;;13.62;87.48;101725.56;4970015;28;21071;-66
2022/07/12 00:43:00;;;;;;;4.55;4.25;;;;;;;13.59;87.42;101725.84;4984170;28;20183;-66
2022/07/12 00:45:26;;;;;;;4.65;4.40;;;;;;;13.50;86.95;101719.50;4969620;28;20080;-66
2022/07/12 00:47:51;;;;;;;4.78;4.07;;;;;;;13.46;87.40;101718.09;4986423;28;20045;-66
2022/07/12 00:50:18;;;;;;;4.57;4.30;;;;;;;13.51;87.34;101723.88;4954789;28;20777;-66
2022/07/12 00:52:47;;;;;;;4.38;4.18;;;;;;;13.46;87.72;101720.75;4967135;28;20125;-66
2022/07/12 00:55:13;;;;;;;4.20;4.10;;;;;;;13.46;87.64;101715.44;4967836;28;20129;-64
2022/07/12 00:57:39;;;;;;;4.50;4.18;;;;;;;13.44;87.57;101706.72;4986049;28;20564;-66
2022/07/12 01:00:07;;;;;;;6.03;4.50;;;;;;;13.48;87.38;101708.16;4966685;28;20033;-66
2022/07/12 01:02:33;;;;;;;4.72;4.40;;;;;;;13.39;87.72;101693.84;4947064;28;20026;-67
2022/07/12 01:04:58;;;;;;;4.30;4.00;;;;;;;13.34;87.53;101696.88;4968380;28;20310;-66
2022/07/12 01:07:25;;;;;;;4.90;4.60;;;;;;;13.38;87.17;101693.00;4977183;28;20328;-67
2022/07/12 01:09:54;;;;;;;4.70;4.50;;;;;;;13.35;87.85;101695.94;4982998;28;20821;-67
2022/07/12 01:12:20;;;;;;;5.00;4.70;;;;;;;13.42;87.25;101696.22;4962351;28;20014;-67
2022/07/12 01:14:45;;;;;;;4.60;4.20;;;;;;;13.42;86.67;101698.88;4985637;28;20018;-67
2022/07/12 01:17:11;;;;;;;4.53;4.20;;;;;;;13.37;86.84;101706.44;4981026;28;20030;-66
2022/07/12 01:19:39;;;;;;;4.82;4.53;;;;;;;13.46;86.44;101710.13;4971858;28;20671;-67
2022/07/12 01:22:09;;;;;;;4.72;4.53;;;;;;;13.39;86.65;101699.97;4968211;28;20029;-66
2022/07/12 01:24:36;;;;;;;4.57;4.38;;;;;;;13.28;87.10;101692.06;4968860;28;20048;-65
2022/07/12 01:27:05;;;;;;;5.32;4.93;;;;;;;13.22;87.58;101698.75;4935092;28;20018;-66
2022/07/12 01:29:31;;;;;;;4.93;4.63;;;;;;;13.19;88.14;101698.19;4978721;28;20006;-68
2022/07/12 01:32:24;;;;;;;5.35;5.00;;;;;;;13.17;88.19;101695.66;4996574;28;20609;-68
2022/07/12 01:34:42;;;;;;;5.13;4.82;;;;;;;13.18;87.64;101694.69;4986699;28;20145;-67
2022/07/12 01:37:08;;;;;;;4.88;4.68;;;;;;;13.09;87.73;101703.44;4967254;28;20064;-68
2022/07/12 01:39:33;;;;;;;5.00;4.70;;;;;;;13.04;87.95;101701.16;4953253;28;20301;-67
2022/07/12 01:41:58;;;;;;;5.15;4.85;;;;;;;13.05;87.90;101709.97;4967372;28;20146;-63
2022/07/12 01:44:24;;;;;;;6.15;5.18;;;;;;;13.02;88.03;101707.56;4969484;28;20018;-66
2022/07/12 01:46:49;;;;;;;5.13;4.90;;;;;;;12.99;88.43;101714.00;4964679;28;20010;-67
2022/07/12 01:49:15;;;;;;;5.25;4.75;;;;;;;13.05;87.92;101702.81;4979269;28;20256;-67
2022/07/12 01:51:40;;;;;;;4.97;4.78;;;;;;;13.06;87.91;101707.19;4964859;28;20015;-65
2022/07/12 01:54:06;;;;;;;4.90;4.70;;;;;;;12.99;88.13;101708.66;4965203;28;20056;-68
2022/07/12 01:56:32;;;;;;;5.18;4.88;;;;;;;12.95;88.39;101709.06;4963677;28;20072;-66
2022/07/12 01:58:57;;;;;;;5.15;4.85;;;;;;;12.99;88.30;101706.00;4959813;28;20030;-66
2022/07/12 02:01:23;;;;;;;5.22;5.03;;;;;;;12.95;88.24;101696.63;4950121;28;20995;-66
2022/07/12 02:03:48;;;;;;;5.15;4.95;;;;;;;12.90;88.13;101701.47;4965628;28;20014;-66
2022/07/12 02:06:13;;;;;;;5.18;4.80;;;;;;;12.90;88.06;101709.44;4985210;28;20877;-65
2022/07/12 02:08:42;;;;;;;5.20;4.80;;;;;;;12.92;88.21;101704.84;4965812;28;20002;-66
2022/07/12 02:11:07;;;;;;;5.00;4.60;;;;;;;12.87;88.47;101715.88;4968287;28;20469;-66
2022/07/12 02:13:33;;;;;;;5.55;5.07;;;;;;;12.84;88.24;101716.09;4953353;28;20394;-63
2022/07/12 02:15:58;;;;;;;5.07;4.78;;;;;;;13.02;87.24;101715.53;4983632;28;20018;-66
2022/07/12 02:18:24;;;;;;;5.38;5.07;;;;;;;12.94;87.06;101725.97;4948878;28;20034;-65
2022/07/12 02:20:49;;;;;;;4.68;4.45;;;;;;;12.83;87.02;101719.75;4962873;28;20025;-67
2022/07/12 02:23:14;;;;;;;5.18;4.97;;;;;;;12.84;87.69;101720.56;4963157;28;20026;-64
2022/07/12 02:25:40;;;;;;;5.10;4.80;;;;;;;12.77;87.58;101716.75;4967893;28;20056;-67
2022/07/12 02:28:06;;;;;;;5.32;4.88;;;;;;;12.95;87.31;101717.88;4968788;28;21094;-67
2022/07/12 02:30:31;;;;;;;5.30;4.97;;;;;;;12.86;86.92;101721.28;4969836;28;20075;-66
2022/07/12 02:32:56;;;;;;;4.82;4.63;;;;;;;12.78;87.36;101721.09;4930687;28;20916;-66
2022/07/12 02:35:22;;;;;;;5.38;4.93;;;;;;;12.82;87.50;101711.91;4959992;28;20107;-66
2022/07/12 02:37:47;;;;;;;5.00;4.70;;;;;;;12.72;87.41;101722.44;4947232;28;20943;-66
2022/07/12 02:42:57;;;;;;;5.10;4.90;;;;;;;12.48;88.46;101726.16;4964014;28;20543;-66
2022/07/12 02:45:22;;;;;;;5.07;4.88;;;;;;;12.42;88.54;101720.47;4980716;28;20014;-66
2022/07/12 02:47:48;;;;;;;5.47;5.15;;;;;;;12.41;88.70;101732.06;4977022;28;20030;-65
2022/07/12 02:50:13;;;;;;;5.20;5.00;;;;;;;12.47;88.63;101723.63;4947518;28;20021;-66
2022/07/12 02:52:39;;;;;;;5.53;5.22;;;;;;;12.47;88.71;101732.41;4932672;28;20049;-66
2022/07/12 02:55:04;;;;;;;5.50;5.20;;;;;;;12.53;88.44;101733.72;4963497;28;20270;-66
2022/07/12 02:57:30;;;;;;;5.63;5.22;;;;;;;12.49;88.06;101737.59;4967938;28;20937;-67
2022/07/12 02:59:55;;;;;;;5.80;5.25;;;;;;;12.52;88.27;101742.66;4975178;28;20234;-66
2022/07/12 03:02:20;;;;;;;5.10;4.90;;;;;;;12.47;88.12;101745.69;4988225;28;20022;-66
2022/07/12 03:04:46;;;;;;;5.47;5.07;;;;;;;12.46;87.97;101745.81;4989384;28;20052;-66
2022/07/12 03:07:11;;;;;;;5.25;4.90;;;;;;;12.47;87.62;101750.16;5001161;28;20021;-67
2022/07/12 03:09:36;;;;;;;5.38;5.07;;;;;;;12.39;87.94;101741.97;4986004;28;20022;-66
2022/07/12 03:12:02;;;;;;;5.13;4.82;;;;;;;12.38;88.12;101741.13;4987727;28;21093;-66
2022/07/12 03:14:28;;;;;;;4.85;4.60;;;;;;;12.44;87.90;101739.81;4973157;28;20149;-66
2022/07/12 03:16:53;;;;;;;4.85;4.65;;;;;;;12.35;87.87;101736.91;4982321;28;20014;-66
2022/07/12 03:19:19;;;;;;;4.90;4.70;;;;;;;12.33;87.99;101738.84;4966328;28;20084;-66
2022/07/12 03:21:44;;;;;;;5.00;4.70;;;;;;;12.29;88.33;101742.69;4989343;28;20078;-67
2022/07/12 03:24:10;;;;;;;5.18;4.82;;;;;;;12.26;88.08;101737.66;4970143;28;20064;-64
2022/07/12 03:26:35;;;;;;;5.03;4.70;;;;;;;12.37;87.71;101740.28;4987114;28;20098;-66
2022/07/12 03:29:01;;;;;;;4.85;4.47;;;;;;;12.30;87.72;101740.91;4982733;28;20897;-65
2022/07/12 03:31:26;;;;;;;4.78;4.47;;;;;;;12.29;88.24;101739.22;4965800;28;20198;-66
2022/07/12 03:33:52;;;;;;;4.80;4.60;;;;;;;12.29;88.17;101737.41;4949706;28;20065;-66
2022/07/12 03:36:17;;;;;;;5.32;5.05;;;;;;;12.29;87.71;101741.88;4956415;28;20026;-66
2022/07/12 03:38:43;;;;;;;5.32;4.93;;;;;;;12.26;87.70;101744.78;4970801;28;20425;-67
2022/07/12 03:41:08;;;;;;;5.53;4.80;;;;;;;12.24;87.69;101736.06;4981300;28;20002;-67
2022/07/12 03:43:34;;;;;;;4.97;4.70;;;;;;;12.25;87.63;101748.38;4968939;28;21031;-67
2022/07/12 03:45:59;;;;;;;4.97;4.70;;;;;;;12.22;88.05;101751.28;4965074;28;20010;-67
2022/07/12 03:48:25;;;;;;;5.45;5.05;;;;;;;12.16;88.14;101742.00;4989028;28;20030;-67
2022/07/12 03:50:50;;;;;;;5.20;5.00;;;;;;;12.15;88.79;101748.28;4965304;28;20018;-66
2022/07/12 03:53:15;;;;;;;4.82;4.57;;;;;;;12.11;88.59;101744.19;4971491;28;20022;-67
2022/07/12 03:55:41;;;;;;;5.20;4.88;;;;;;;12.18;88.39;101748.88;4970208;28;20006;-67
2022/07/12 03:58:06;;;;;;;5.25;4.75;;;;;;;12.18;88.58;101742.72;4969896;28;20594;-67
2022/07/12 04:00:32;;;;;;;4.85;4.65;;;;;;;12.24;88.39;101746.69;4966723;28;20036;-67
2022/07/12 04:02:57;;;;;;;5.43;5.05;;;;;;;12.21;88.25;101745.13;4987554;28;20260;-67
2022/07/12 04:05:25;;;;;;;4.97;4.68;;;;;;;12.22;88.55;101744.16;4951893;28;20431;-64
2022/07/12 04:07:51;;;;;;;4.82;4.63;;;;;;;12.16;88.56;101752.63;4970084;28;20018;-67
2022/07/12 04:10:16;;;;;;;5.07;4.85;;;;;;;12.21;89.17;101742.47;4955967;28;20590;-66
2022/07/12 04:12:42;;;;;;;5.00;4.70;;;;;;;12.24;89.18;101755.50;4962041;28;20024;-68
2022/07/12 04:15:07;;;;;;;5.10;4.80;;;;;;;12.29;88.74;101752.47;4958305;28;20125;-65
2022/07/12 04:17:33;;;;;;;5.38;5.07;;;;;;;12.33;88.80;101746.81;4960058;28;20013;-66
2022/07/12 04:19:58;;;;;;;5.82;4.80;;;;;;;12.29;88.60;101752.47;4954244;28;20010;-65
2022/07/12 04:22:24;;;;;;;4.82;4.63;;;;;;;12.26;88.61;101758.03;4964293;28;20010;-66
2022/07/12 04:24:49;;;;;;;5.20;4.90;;;;;;;12.29;89.08;101763.94;4950573;28;20404;-65
2022/07/12 04:27:15;;;;;;;5.13;4.90;;;;;;;12.35;88.67;101765.25;4964382;28;20014;-66
2022/07/12 04:29:40;;;;;;;5.22;4.95;;;;;;;12.36;88.96;101756.31;4966483;28;20477;-66
2022/07/12 04:32:06;;;;;;;5.15;4.75;;;;;;;12.38;89.11;101759.72;4968469;28;20080;-66
2022/07/12 04:34:31;;;;;;;5.30;4.90;;;;;;;12.44;88.65;101755.72;4952181;28;20893;-66
2022/07/12 04:36:57;;;;;;;5.00;4.72;;;;;;;12.45;88.85;101755.59;4965887;28;20022;-66
2022/07/12 04:39:23;;;;;;;5.18;4.70;;;;;;;12.46;88.70;101753.78;4934519;28;20964;-66
2022/07/12 04:41:49;;;;;;;4.90;4.70;;;;;;;12.52;88.62;101764.75;4937605;28;20033;-64
2022/07/12 04:44:14;;;;;;;4.82;4.47;;;;;;;12.46;88.99;101759.09;4952439;28;20830;-66
2022/07/12 04:46:39;;;;;;;4.97;4.78;;;;;;;12.52;89.14;101763.88;4993952;28;20500;-66
2022/07/12 04:49:06;;;;;;;5.05;4.85;;;;;;;12.61;89.08;101759.66;4973891;28;20002;-66
2022/07/12 04:51:31;;;;;;;5.20;4.82;;;;;;;12.71;88.68;101758.78;4959464;28;20041;-65
2022/07/12 04:53:57;;;;;;;5.25;5.05;;;;;;;12.78;88.21;101761.78;4982750;28;20030;-65
2022/07/12 04:56:22;;;;;;;5.03;4.72;;;;;;;12.87;88.36;101765.47;4967636;28;20456;-67
2022/07/12 04:58:48;;;;;;;5.07;4.88;;;;;;;12.91;88.28;101766.91;4946952;28;20030;-65
2022/07/12 05:01:14;;;;;;;5.55;5.07;;;;;;;12.99;88.60;101766.28;4944403;28;20453;-66
2022/07/12 05:03:40;;;;;;;5.10;4.90;;;;;;;13.14;88.53;101764.16;4955524;28;20117;-65
2022/07/12 05:06:05;;;;;;;5.47;5.18;;;;;;;13.19;88.79;101767.28;4965419;28;20010;-67
2022/07/12 05:08:31;;;;;;;5.03;4.80;;;;;;;13.30;89.21;101769.88;4970529;28;20270;-66
2022/07/12 05:10:56;;;;;;;5.05;4.75;;;;;;;13.42;88.62;101773.34;4980860;28;20021;-67
2022/07/12 05:13:22;;;;;;;5.20;4.90;;;;;;;13.60;88.04;101767.44;4991883;28;20927;-67
2022/07/12 05:15:47;;;;;;;4.90;4.68;;;;;;;13.72;87.84;101777.00;4980977;28;20013;-66
2022/07/12 05:18:13;;;;;;;7.22;4.72;;;;;;;13.77;87.37;101777.44;4957059;28;20541;-66
2022/07/12 05:20:38;;;;;;;4.90;4.55;;;;;;;13.86;87.31;101781.13;4975548;28;20399;-66
2022/07/12 05:23:03;;;;;;;4.60;4.40;;;;;;;13.86;87.65;101776.66;4987583;28;21087;-65
2022/07/12 05:25:29;;;;;;;5.38;5.00;;;;;;;13.92;87.89;101780.63;4964954;28;20037;-66
2022/07/12 05:27:54;;;;;;;4.80;4.60;;;;;;;14.00;88.07;101782.59;4986368;28;20363;-66
2022/07/12 05:30:21;;;;;;;6.28;4.65;;;;;;;14.15;88.21;101783.09;4980079;28;20036;-65
2022/07/12 05:32:46;;;;;;;5.00;4.60;;;;;;;14.26;87.74;101775.00;4953000;28;20446;-66
2022/07/12 05:35:12;;;;;;;4.90;4.60;;;;;;;14.33;87.90;101786.78;4957333;28;20791;-66
2022/07/12 05:37:37;;;;;;;4.93;4.63;;;;;;;14.34;88.31;101785.81;4983896;28;20266;-66
2022/07/12 05:40:03;;;;;;;4.80;4.60;;;;;;;14.44;88.25;101796.50;4967636;28;20812;-65
2022/07/12 05:42:28;;;;;;;4.80;4.50;;;;;;;14.50;88.57;101792.44;4981046;28;20018;-66
2022/07/12 05:44:54;;;;;;;4.93;4.63;;;;;;;14.64;88.52;101796.53;4984459;28;21138;-68
2022/07/12 05:47:19;;;;;;;4.78;4.57;;;;;;;14.74;88.21;101787.59;4982005;28;20048;-66
2022/07/12 05:49:45;;;;;;;5.45;5.05;;;;;;;14.86;88.83;101787.47;4983917;28;20193;-66
2022/07/12 05:54:54;;;;;;;6.32;5.93;;;;;;;15.07;88.61;101784.66;4969097;28;20083;-64
2022/07/12 05:57:19;;;;;;;6.75;6.25;;;;;;;15.15;88.42;101784.81;4981642;28;20345;-65
2022/07/12 05:59:45;;;;;;;6.90;6.50;;;;;;;15.25;88.21;101776.81;4951528;28;20049;-65
2022/07/12 06:02:10;;;;;;;6.57;6.07;;;;;;;15.31;88.34;101778.06;4963240;28;20133;-66
2022/07/12 06:04:36;;;;;;;6.10;5.80;;;;;;;15.44;88.35;101776.78;4952018;28;20017;-67
2022/07/12 06:07:01;;;;;;;6.70;5.85;;;;;;;15.57;87.95;101778.31;4953759;28;20230;-65
2022/07/12 06:09:27;;;;;;;6.55;6.05;;;;;;;15.63;87.74;101785.72;4950405;28;20110;-66
2022/07/12 06:11:53;;;;;;;6.18;5.78;;;;;;;15.72;87.80;101784.84;4962998;28;20710;-66
2022/07/12 06:14:18;;;;;;;8.93;8.30;;;;;;;15.84;87.27;101790.88;4966797;28;20480;-66
2022/07/12 06:16:43;;;;;;;10.35;9.57;;;;;;;15.94;86.37;101786.34;4959824;28;20325;-66
2022/07/12 06:19:09;;;;;;;9.70;9.00;;;;;;;16.01;86.15;101781.25;4984489;28;20407;-66
2022/07/12 06:21:34;;;;;;;10.68;9.68;;;;;;;16.08;86.45;101784.19;4943368;28;20017;-66
2022/07/12 06:24:00;;;;;;;10.75;9.90;;;;;;;16.14;85.79;101781.78;4948442;28;20589;-66
2022/07/12 06:26:25;;;;;;;11.15;10.30;;;;;;;16.27;85.71;101780.56;4927822;28;20033;-63
2022/07/12 06:28:51;;;;;;;12.00;10.77;;;;;;;16.30;85.01;101793.63;4982102;28;20874;-66
2022/07/12 06:31:16;;;;;;;11.40;10.60;;;;;;;16.42;85.09;101792.44;4939474;28;20009;-64
2022/07/12 06:33:41;;;;;;;11.23;10.10;;;;;;;16.52;84.65;101792.38;4967137;28;20059;-66
2022/07/12 06:36:07;;;;;;;10.32;9.57;;;;;;;16.55;84.67;101794.75;4966508;28;20014;-65
2022/07/12 06:38:32;;;;;;;10.77;9.98;;;;;;;16.64;84.76;101803.72;4982492;28;20082;-66
2022/07/12 06:40:57;;;;;;;9.82;9.13;;;;;;;16.76;84.25;101807.00;4983042;28;20784;-65
2022/07/12 06:43:23;;;;;;;10.52;9.73;;;;;;;16.83;83.28;101795.53;4963612;28;20017;-67
2022/07/12 06:45:48;;;;;;;10.50;9.70;;;;;;;16.97;81.87;101804.06;4951636;28;20376;-66
2022/07/12 06:48:14;;;;;;;11.07;10.07;;;;;;;17.03;82.14;101811.47;4963102;28;20020;-66
2022/07/12 06:50:39;;;;;;;9.60;8.88;;;;;;;17.04;82.07;101815.00;4968685;28;19998;-66
2022/07/12 06:53:05;;;;;;;9.63;8.90;;;;;;;17.18;81.83;101819.78;4965061;28;20067;-66
2022/07/12 06:55:30;;;;;;;10.80;9.95;;;;;;;17.21;81.59;101816.81;4987701;28;20017;-66
2022/07/12 06:57:56;;;;;;;10.60;9.70;;;;;;;17.28;81.24;101822.38;4961183;28;20556;-66
2022/07/12 07:00:21;;;;;;;11.02;10.05;;;;;;;17.33;80.33;101826.28;4949482;28;20411;-67
2022/07/12 07:02:46;;;;;;;11.15;10.15;;;;;;;17.33;79.46;101830.81;4916071;28;20460;-66
2022/07/12 07:05:12;;;;;;;10.85;9.98;;;;;;;17.44;79.77;101832.38;4962362;28;20410;-67
2022/07/12 07:07:37;;;;;;;10.23;9.45;;;;;;;17.59;78.77;101846.03;4969401;28;20033;-63
2022/07/12 07:10:03;;;;;;;10.38;9.50;;;;;;;17.76;78.20;101841.66;4988415;28;20029;-66
2022/07/12 07:12:29;;;;;;;9.95;9.07;;;;;;;17.90;77.05;101853.63;4969628;28;20032;-64
2022/07/12 07:14:54;;;;;;;8.73;8.13;;;;;;;17.88;76.81;101850.25;4988589;28;20014;-66
2022/07/12 07:17:20;;;;;;;9.15;8.52;;;;;;;17.89;77.48;101851.94;4967291;28;20064;-65
2022/07/12 07:19:45;;;;;;;9.32;8.63;;;;;;;18.05;76.68;101846.72;4966637;28;20252;-66
2022/07/12 07:22:14;;;;;;;9.23;8.52;;;;;;;18.09;76.49;101864.16;4938494;28;20889;-66
2022/07/12 07:24:40;;;;;;;8.88;8.27;;;;;;;18.17;75.90;101850.75;4943510;28;20161;-67
2022/07/12 07:27:05;;;;;;;9.43;8.55;;;;;;;18.16;75.48;101859.81;4964931;28;21091;-66
2022/07/12 07:32:15;;;;;;;8.07;7.53;;;;;;;18.33;76.06;101842.00;4966802;28;20126;-67
2022/07/12 07:34:41;;;;;;;8.65;7.95;;;;;;;18.62;74.26;101847.94;4970356;28;20502;-66
2022/07/12 07:37:07;;;;;;;8.57;7.97;;;;;;;18.54;74.12;101838.88;4969707;28;20785;-67
2022/07/12 07:39:32;;;;;;;7.80;7.30;;;;;;;18.59;75.42;101837.56;4955303;28;20270;-66
2022/07/12 07:41:58;;;;;;;8.30;7.70;;;;;;;18.71;76.00;101841.59;4966007;28;20022;-68
2022/07/12 07:44:23;;;;;;;7.75;7.15;;;;;;;18.83;76.14;101848.34;4972237;28;20338;-66
2022/07/12 07:46:48;;;;;;;8.05;7.38;;;;;;;18.96;74.40;101847.06;4982366;28;20465;-65
2022/07/12 07:49:14;;;;;;;6.55;6.15;;;;;;;19.07;73.66;101844.03;4969892;28;20410;-66
2022/07/12 07:51:40;;;;;;;8.60;6.38;;;;;;;19.18;73.47;101848.25;4971691;27;20040;-65
2022/07/12 07:54:05;;;;;;;6.85;6.28;;;;;;;19.21;73.52;101851.44;4990027;28;20751;-66
2022/07/12 07:56:31;;;;;;;7.00;6.20;;;;;;;19.34;72.04;101852.78;4979280;28;20880;-65
2022/07/12 07:58:56;;;;;;;6.78;6.22;;;;;;;19.47;71.02;101858.47;4999401;28;20399;-67
2022/07/12 08:01:42;;;;;;;6.75;6.10;;;;;;;19.51;71.11;101851.75;4963661;28;20277;-66
2022/07/12 08:04:10;;;;;;;5.70;5.40;;;;;;;19.62;72.40;101844.38;4971675;28;20838;-67
2022/07/12 08:06:36;;;;;;;6.38;5.72;;;;;;;19.64;70.74;101842.38;4984840;28;20010;-67
2022/07/12 08:09:02;;;;;;;5.47;5.18;;;;;;;19.70;68.85;101839.84;4967578;28;20002;-65
2022/07/12 08:11:27;;;;;;;5.50;5.10;;;;;;;19.73;69.29;101838.66;4972073;28;20395;-67
2022/07/12 08:13:53;;;;;;;6.00;5.43;;;;;;;19.78;69.61;101833.59;4956334;28;20925;-67
2022/07/12 08:16:18;;;;;;;7.90;5.28;;;;;;;19.86;71.02;101836.31;4948565;28;20495;-66
2022/07/12 08:18:44;;;;;;;6.30;5.65;;;;;;;19.99;70.35;101843.00;4985369;28;20052;-66
2022/07/12 08:21:09;;;;;;;6.40;5.80;;;;;;;20.07;68.25;101842.97;4965742;28;20025;-67
2022/07/12 08:23:35;;;;;;;6.20;5.70;;;;;;;20.16;68.28;101836.53;4968281;28;20377;-67
2022/07/12 08:26:00;;;;;;;6.40;5.90;;;;;;;20.33;67.30;101839.19;4949285;28;20608;-66
2022/07/12 08:28:25;;;;;;;5.80;5.50;;;;;;;20.33;68.59;101836.50;4977531;28;20079;-67
2022/07/12 08:30:51;;;;;;;5.60;4.55;;;;;;;20.39;67.68;101841.16;4952386;28;20121;-64
2022/07/12 08:33:16;;;;;;;4.80;4.60;;;;;;;20.59;66.75;101842.41;4953269;28;20806;-66
2022/07/12 08:35:42;;;;;;;5.20;4.90;;;;;;;20.63;65.54;101831.31;4949493;28;20470;-66
2022/07/12 08:38:08;;;;;;;4.93;4.53;;;;;;;20.73;65.29;101840.84;4951941;28;20065;-67
2022/07/12 08:40:34;;;;;;;4.50;4.30;;;;;;;20.90;66.76;101832.69;4967928;28;20275;-66
2022/07/12 08:43:02;;;;;;;4.50;4.20;;;;;;;21.14;68.03;101820.91;4983234;28;20010;-67
2022/07/12 08:45:28;;;;;;;4.57;4.28;;;;;;;21.27;66.83;101822.97;4967203;28;20118;-67
2022/07/12 08:47:53;;;;;;;5.18;4.93;;;;;;;21.37;66.32;101825.44;4985711;28;20002;-66
2022/07/12 08:50:19;;;;;;;3.65;3.38;;;;;;;21.34;62.83;101823.09;4982668;28;20034;-66
2022/07/12 08:52:48;;;;;;;4.05;3.85;;;;;;;21.42;61.22;101831.13;4963983;28;20512;-67
2022/07/12 08:55:19;;;;;;;3.47;3.38;;;;;;;21.56;60.20;101827.63;4967334;28;20462;-66
2022/07/12 08:57:44;;;;;;;3.78;3.35;;;;;;;21.61;60.37;101819.00;4973588;28;20087;-66
2022/07/12 09:00:11;;;;;;;4.07;3.78;;;;;;;21.90;60.42;101818.19;4985613;28;20643;-66
2022/07/12 09:02:52;;;;;;;3.70;3.50;;;;;;;22.07;60.00;101823.41;4950519;28;20021;-64
2022/07/12 09:05:38;;;;;;;3.70;3.40;;;;;;;22.21;58.35;101819.84;4948700;28;20069;-67
2022/07/12 09:08:10;;;;;;;2.80;2.70;;;;;;;22.38;57.66;101819.66;4966097;28;20323;-67
2022/07/12 09:10:51;;;;;;;2.55;2.45;;;;;;;22.68;59.34;101814.19;4983202;28;20562;-66
2022/07/12 09:13:17;;;;;;;2.25;2.17;;;;;;;22.75;57.81;101815.94;4984007;28;20477;-67
2022/07/12 09:15:42;;;;;;;2.53;2.33;;;;;;;22.79;56.18;101816.38;4966155;28;20018;-67
2022/07/12 09:18:13;;;;;;;2.40;2.33;;;;;;;22.89;56.01;101821.47;4981922;28;20367;-67
2022/07/12 09:20:38;;;;;;;3.95;3.75;;;;;;;22.76;56.44;101816.75;4967305;28;20030;-67
2022/07/12 09:23:04;;;;;;;3.20;3.00;;;;;;;22.85;56.79;101818.31;4930166;28;20098;-67
2022/07/12 09:25:32;;;;;;;2.60;2.50;;;;;;;23.21;57.74;101817.44;4967418;28;20037;-68
2022/07/12 09:27:58;;;;;;;2.70;2.38;;;;;;;23.50;57.96;101810.19;4954906;28;20028;-65
2022/07/12 09:30:24;;;;;;;4.18;2.53;;;;;;;23.60;55.24;101815.22;4990941;28;20541;-67
2022/07/12 09:38:25;;;;;;;;;;;;;;;24.14;53.82;101808.28;4958402;28;20343;-66
2022/07/12 09:40:51;;;;;;;2.70;2.60;;;;;;;24.33;51.42;101810.22;4964965;28;20233;-66
2022/07/12 09:43:16;;;;;;;5.47;2.50;;;;;;;24.14;51.20;101814.53;4966208;28;20037;-65
2022/07/12 09:45:43;;;;;;;2.53;2.33;;;;;;;24.20;51.94;101804.78;4963578;28;20012;-67
2022/07/12 09:48:11;;;;;;;2.22;2.13;;;;;;;24.67;53.89;101808.50;4990963;28;20024;-66
2022/07/12 09:50:36;;;;;;;1.92;1.80;;;;;;;25.03;52.10;101812.72;4975856;28;20016;-66
2022/07/12 09:53:02;;;;;;;1.63;1.60;;;;;;;25.23;52.12;101808.34;4963943;28;20214;-67
2022/07/12 09:55:29;;;;;;;1.77;1.77;;;;;;;25.50;50.36;101807.31;4950810;28;20171;-67
2022/07/12 09:57:55;;;;;;;1.77;1.60;;;;;;;25.76;48.89;101807.47;4934000;28;20116;-67
2022/07/12 10:00:21;;;;;;;1.50;1.40;;;;;;;25.66;46.21;101807.91;4972362;28;20022;-67
2022/07/12 10:02:46;;;;;;;1.40;1.30;;;;;;;25.97;46.34;101799.06;4968091;28;20006;-67
2022/07/12 10:05:12;;;;;;;1.30;1.20;;;;;;;26.28;46.15;101807.53;4982653;28;20103;-67
2022/07/12 10:07:38;;;;;;;1.33;1.33;;;;;;;26.36;45.08;101808.13;4967395;28;20953;-66
2022/07/12 10:10:03;;;;;;;1.40;1.40;;;;;;;26.71;43.86;101807.75;4953674;28;20067;-66
2022/07/12 10:12:29;;;;;;;1.20;1.20;;;;;;;26.63;44.87;101805.25;4966021;28;20643;-67
2022/07/12 10:15:00;;;;;;;1.33;1.30;;;;;;;27.13;46.29;101809.97;4965445;28;20028;-65
2022/07/12 10:17:26;;;;;;;1.52;1.50;;;;;;;27.23;46.34;101804.00;4964472;28;20481;-67
2022/07/12 10:20:18;;;;;;;2.90;1.35;;;;;;;27.63;45.37;101800.94;4944286;28;20065;-66
2022/07/12 10:22:44;;;;;;;1.10;1.10;;;;;;;27.61;43.43;101803.06;4948023;28;20938;-67
2022/07/12 10:25:29;;;;;;;1.30;1.20;;;;;;;27.53;42.37;101806.06;4943811;28;20117;-64
2022/07/12 10:27:55;;;;;;;1.00;1.00;;;;;;;27.34;45.00;101803.28;4984361;28;20676;-64
2022/07/12 10:30:22;;;;;;;1.17;1.17;;;;;;;27.87;42.70;101804.63;4947354;28;20018;-67
2022/07/12 10:32:48;;;;;;;1.25;1.25;;;;;;;27.63;41.49;101803.66;4967652;28;20017;-66
2022/07/12 10:35:14;;;;;;;1.17;1.17;;;;;;;27.65;40.67;101806.16;4986370;28;20895;-67
2022/07/12 10:37:39;;;;;;;1.20;1.20;;;;;;;28.14;40.85;101814.41;4987808;28;20014;-65
2022/07/12 10:40:15;;;;;;;0.95;0.93;;;;;;;28.64;42.23;101808.75;4971272;28;20894;-68
2022/07/12 10:43:05;;;;;;;1.30;1.20;;;;;;;29.31;42.34;101801.41;4987337;28;20022;-67
2022/07/12 10:45:35;;;;;;;1.10;1.00;;;;;;;29.40;41.12;101792.66;4979468;28;20165;-67
2022/07/12 10:48:01;;;;;;;1.00;1.00;;;;;;;29.69;39.67;101791.91;4985347;28;20006;-68
2022/07/12 10:50:44;;;;;;;0.98;0.98;;;;;;;30.03;38.27;101790.16;4988165;28;20439;-67
2022/07/12 10:53:19;;;;;;;;;;;;;;;29.87;36.09;101788.19;4983952;28;20200;-68
2022/07/12 10:56:09;;;;;;;0.80;0.80;;;;;;;29.57;35.88;101789.16;4987786;28;20017;-67
2022/07/12 10:58:46;;;;;;;1.02;1.00;;;;;;;30.15;37.93;101790.16;4990523;28;20767;-68
2022/07/12 11:01:13;;;;;;;1.15;0.80;;;;;;;30.34;36.98;101787.22;4942181;28;20029;-65
2022/07/12 11:03:46;;;;;;;0.80;0.80;;;;;;;29.86;37.14;101789.28;4952899;28;20015;-67
2022/07/12 11:06:16;;;;;;;;;;;;;;;30.45;36.95;101789.91;4932260;28;20082;-68
2022/07/12 11:08:56;;;;;;;0.93;0.93;;;;;;;30.78;37.24;101782.84;4947431;28;20121;-67
2022/07/12 11:11:23;;;;;;;0.93;0.93;;;;;;;31.14;36.94;101790.81;4968671;28;20564;-67
2022/07/12 11:13:49;;;;;;;1.17;0.82;;;;;;;31.14;33.91;101786.19;4968983;28;20044;-67
2022/07/12 11:16:14;;;;;;;1.00;1.00;;;;;;;30.28;35.99;101786.28;4950394;28;20071;-68
2022/07/12 11:18:40;;;;;;;1.00;1.00;;;;;;;30.28;37.72;101772.66;4971762;28;20385;-67
2022/07/12 11:21:06;;;;;;;1.20;1.20;;;;;;;30.28;37.01;101784.38;4959597;28;20025;-66
2022/07/12 11:23:31;;;;;;;1.10;1.00;;;;;;;30.56;38.09;101779.16;4970729;28;20258;-67
2022/07/12 11:25:58;;;;;;;1.00;1.00;;;;;;;30.44;36.27;101780.06;4966450;28;20096;-68
2022/07/12 11:28:24;;;;;;;1.00;1.00;;;;;;;30.13;37.87;101773.16;4965593;28;20179;-68
2022/07/12 11:30:50;;;;;;;0.93;0.93;;;;;;;29.85;37.64;101772.06;4966421;28;20017;-67
2022/07/12 11:33:15;;;;;;;1.40;0.90;;;;;;;30.22;36.51;101770.88;4983639;28;20028;-67
2022/07/12 11:35:43;;;;;;;1.00;1.00;;;;;;;30.17;37.28;101766.16;4968498;28;20312;-68